Historyczne dane pomiarowe

Dodano dane terminowe – wersja testowa.

Dane z okresu 1951-2019

Wersja bazy: 1.34 [2019-03-16, lista zmian], aktualizacja planowana na 2019-04-15

Dane meteo z obszaru Polski uzyskane na podstawie danych udostępnionych przez Instytut Meteorologii i Gospodarki Wodnej – Państwowy Instytut Badawczy.

 

Wybierz Datę:    

       

TemperaturaWilgotnośćZachmurzenieWiatrCiśnienieWidzialnośćZjawiska
 Data    tng td wb rh cc ccl cl cm ch dir g1 g2 mslp ppp      
1994-07-12 00:00:00 14.3--- 12.4 13.288wxwx0wx--1024.5 983.6 0.0---wx
1994-07-12 01:00:00 13.1--- 11.3 12.189wxwx0wx--1024.4 983.3----wx
1994-07-12 02:00:00 12.9--- 11.3 12.090wxwx0wx--1024.6 983.5----wx
1994-07-12 03:00:00 12.9--- 11.3 12.090wxwxwx0wx--1024.7 983.6----wx
1994-07-12 04:00:00 12.9--- 11.7 12.292wxwxwx0wx--1024.9 983.8----wx
1994-07-12 05:00:00 14.4--- 13.2 13.793wxwxwxwx0wx--1024.9 984.0----wx
1994-07-12 06:00:00 15.8--- 14.0 14.789wxwxwxwx0wx--1024.7 984.0 0.0---wx
1994-07-12 07:00:00 18.6--- 15.1 16.480wxwxwxwx0wx--1024.2 983.9----wx
1994-07-12 08:00:00 19.3--- 14.3 16.273wxwxwx5wx--1024.4 984.2----wx
1994-07-12 09:00:00 19.9--- 14.1 16.369wxwxwx5wx--1024.3 984.1----wx
1994-07-12 10:00:00 21.4--- 15.4 17.669wxwxwx4wx--1023.7 983.8----wx
1994-07-12 11:00:00 23.2--- 15.2 18.161wxwxwx6wx--1023.4 983.7----wx
1994-07-12 12:00:00 23.6--- 15.1 18.259wxwxwx6wx--1023.2 983.6 0.0---wx
1994-07-12 13:00:00 24.6--- 15.7 18.958wxwxwx3wx--1022.8 983.3----wx
1994-07-12 14:00:00 25.2--- 15.7 19.156wxwxwx3wx--1022.4 983.0----wx
1994-07-12 15:00:00 25.5--- 15.7 19.255wxwxwx5wx--1021.9 982.6----wx
1994-07-12 16:00:00 25.2--- 15.6 19.055wxwxwx2wx--1021.7 982.3----wx
1994-07-12 17:00:00 24.8--- 16.0 19.158wxwxwx2wx--1021.6 982.2----wx
1994-07-12 18:00:00 24.2--- 15.8 18.859wxwxwx1wx--1021.7 982.2 0.0---wx
1994-07-12 19:00:00 22.6--- 16.1 18.467wxwxwx0wx--1022.0 982.3----wx
1994-07-12 20:00:00 20.8--- 15.4 17.471wxwxwx2wx--1022.5 982.5----wx
1994-07-12 21:00:00 18.6--- 15.2 16.581wxwx0wx--1022.9 982.6----wx
1994-07-12 22:00:00 18.0--- 15.4 16.485wxwx1wx--1023.2 982.8----wx
1994-07-12 23:00:00 16.5--- 14.5 15.388wxwx0wx--1023.3 982.7----wx

 

Źródłem pochodzenia danych jest Instytut Meteorologii i Gospodarki Wodnej – Państwowy Instytut Badawczy. Dane Instytutu Meteorologii i Gospodarki Wodnej – Państwowego Instytutu Badawczego zostały przetworzone.

Dane źródłowe można odnaleźć na stronie https://dane.imgw.pl